createdAt,value
2018-11-07T00:00:00.596Z,1005.51
2018-11-07T00:00:41.158Z,1005.53
2018-11-07T00:01:21.712Z,1005.56
2018-11-07T00:02:02.265Z,1005.54
2018-11-07T00:02:42.865Z,1005.58
2018-11-07T00:03:23.369Z,1005.55
2018-11-07T00:04:03.957Z,1005.58
2018-11-07T00:04:44.531Z,1005.58
2018-11-07T00:05:25.076Z,1005.57
2018-11-07T00:06:05.651Z,1005.59
2018-11-07T00:06:46.232Z,1005.61
2018-11-07T00:07:26.792Z,1005.62
2018-11-07T00:08:07.463Z,1005.61
2018-11-07T00:08:47.931Z,1005.63
2018-11-07T00:09:28.502Z,1005.64
2018-11-07T00:10:09.067Z,1005.65
2018-11-07T00:10:49.627Z,1005.65
2018-11-07T00:11:30.173Z,1005.63
2018-11-07T00:12:10.795Z,1005.61
2018-11-07T00:12:51.351Z,1005.64
2018-11-07T00:13:31.939Z,1005.61
2018-11-07T00:14:12.527Z,1005.61
2018-11-07T00:14:53.072Z,1005.61
2018-11-07T00:15:33.637Z,1005.63
2018-11-07T00:16:14.191Z,1005.6
2018-11-07T00:16:54.753Z,1005.61
2018-11-07T00:17:35.322Z,1005.61
2018-11-07T00:18:15.870Z,1005.63
2018-11-07T00:18:56.430Z,1005.62
2018-11-07T00:19:37.003Z,1005.68
2018-11-07T00:20:17.544Z,1005.67
2018-11-07T00:20:58.107Z,1005.66
2018-11-07T00:21:38.690Z,1005.64
2018-11-07T00:22:19.246Z,1005.69
2018-11-07T00:22:59.819Z,1005.63
2018-11-07T00:23:40.378Z,1005.71
2018-11-07T00:24:20.943Z,1005.72
2018-11-07T00:25:01.544Z,1005.7
2018-11-07T00:25:42.100Z,1005.75
2018-11-07T00:26:22.714Z,1005.72
2018-11-07T00:27:03.233Z,1005.71
2018-11-07T00:27:43.808Z,1005.72
2018-11-07T00:28:24.372Z,1005.76
2018-11-07T00:29:04.952Z,1005.72
2018-11-07T00:29:45.516Z,1005.71
2018-11-07T00:30:26.097Z,1005.73
2018-11-07T00:31:06.695Z,1005.67
2018-11-07T00:31:47.266Z,1005.72
2018-11-07T00:32:27.818Z,1005.68
2018-11-07T00:33:08.407Z,1005.64
2018-11-07T00:33:48.992Z,1005.67
2018-11-07T00:34:29.552Z,1005.71
2018-11-07T00:35:10.204Z,1005.71
2018-11-07T00:35:50.694Z,1005.71
2018-11-07T00:36:31.246Z,1005.69
2018-11-07T00:37:11.807Z,1005.72
2018-11-07T00:37:52.368Z,1005.69
2018-11-07T00:38:32.925Z,1005.67
2018-11-07T00:39:13.480Z,1005.69
2018-11-07T00:39:54.050Z,1005.71
2018-11-07T00:40:34.604Z,1005.69
2018-11-07T00:41:15.154Z,1005.73
2018-11-07T00:41:55.734Z,1005.7
2018-11-07T00:42:36.292Z,1005.73
2018-11-07T00:43:16.870Z,1005.69
2018-11-07T00:43:57.440Z,1005.71
2018-11-07T00:44:38.054Z,1005.74
2018-11-07T00:45:18.600Z,1005.69
2018-11-07T00:45:59.188Z,1005.69
2018-11-07T00:46:39.730Z,1005.68
2018-11-07T00:47:20.317Z,1005.71
2018-11-07T00:48:00.892Z,1005.69
2018-11-07T00:48:41.449Z,1005.69
2018-11-07T00:49:22.019Z,1005.65
2018-11-07T00:50:02.571Z,1005.64
2018-11-07T00:50:43.138Z,1005.65
2018-11-07T00:51:23.700Z,1005.62
2018-11-07T00:52:04.251Z,1005.6
2018-11-07T00:52:44.816Z,1005.62
2018-11-07T00:53:25.420Z,1005.65
2018-11-07T00:54:05.993Z,1005.62
2018-11-07T00:54:46.551Z,1005.67
2018-11-07T00:55:27.115Z,1005.64
2018-11-07T00:56:07.681Z,1005.65
2018-11-07T00:56:48.248Z,1005.62
2018-11-07T00:57:28.808Z,1005.69
2018-11-07T00:58:09.438Z,1005.67
2018-11-07T00:58:49.939Z,1005.68
2018-11-07T00:59:30.503Z,1005.67
2018-11-07T01:00:11.080Z,1005.64
2018-11-07T01:00:51.636Z,1005.68
2018-11-07T01:01:32.230Z,1005.67
2018-11-07T01:02:12.784Z,1005.71
2018-11-07T01:02:53.348Z,1005.72
2018-11-07T01:03:33.920Z,1005.75
2018-11-07T01:04:14.481Z,1005.69
2018-11-07T01:04:55.038Z,1005.7
2018-11-07T01:05:35.605Z,1005.75
2018-11-07T01:06:16.211Z,1005.72
2018-11-07T01:06:56.792Z,1005.7
2018-11-07T01:07:37.332Z,1005.72
2018-11-07T01:08:17.894Z,1005.68
2018-11-07T01:08:58.485Z,1005.73
2018-11-07T01:09:39.092Z,1005.72
2018-11-07T01:10:19.577Z,1005.7
2018-11-07T01:11:00.148Z,1005.69
2018-11-07T01:11:40.725Z,1005.72
2018-11-07T01:12:21.276Z,1005.73
2018-11-07T01:13:01.839Z,1005.73
2018-11-07T01:13:42.411Z,1005.76
2018-11-07T01:14:22.989Z,1005.76
2018-11-07T01:15:03.549Z,1005.77
2018-11-07T01:15:44.112Z,1005.75
2018-11-07T01:16:24.687Z,1005.74
2018-11-07T01:17:05.227Z,1005.74
2018-11-07T01:17:45.806Z,1005.72
2018-11-07T01:18:26.361Z,1005.69
2018-11-07T01:19:06.914Z,1005.69
2018-11-07T01:19:47.479Z,1005.68
2018-11-07T01:20:28.034Z,1005.71
2018-11-07T01:21:08.610Z,1005.67
2018-11-07T01:21:49.171Z,1005.67
2018-11-07T01:22:29.728Z,1005.66
2018-11-07T01:23:10.293Z,1005.64
2018-11-07T01:23:50.843Z,1005.65
2018-11-07T01:24:31.390Z,1005.61
2018-11-07T01:25:12.699Z,1005.57
2018-11-07T01:25:52.555Z,1005.63
2018-11-07T01:26:33.103Z,1005.61
2018-11-07T01:27:13.689Z,1005.62
2018-11-07T01:27:54.261Z,1005.62
2018-11-07T01:28:34.814Z,1005.59
2018-11-07T01:29:15.375Z,1005.64
2018-11-07T01:29:55.938Z,1005.6
2018-11-07T01:30:36.488Z,1005.63
2018-11-07T01:31:17.080Z,1005.64
2018-11-07T01:31:57.648Z,1005.66
2018-11-07T01:32:38.189Z,1005.56
2018-11-07T01:33:18.769Z,1005.58
2018-11-07T01:33:59.337Z,1005.59
2018-11-07T01:34:39.893Z,1005.53
2018-11-07T01:35:20.474Z,1005.52
2018-11-07T01:36:01.031Z,1005.5
2018-11-07T01:36:41.589Z,1005.48
2018-11-07T01:37:22.158Z,1005.51
2018-11-07T01:38:02.715Z,1005.47
2018-11-07T01:38:43.297Z,1005.45
2018-11-07T01:39:23.851Z,1005.41
2018-11-07T01:40:04.447Z,1005.44
2018-11-07T01:40:45.019Z,1005.42
2018-11-07T01:41:25.615Z,1005.41
2018-11-07T01:42:06.209Z,1005.39
2018-11-07T01:42:46.742Z,1005.42
2018-11-07T01:43:27.318Z,1005.37
2018-11-07T01:44:07.873Z,1005.35
2018-11-07T01:44:48.451Z,1005.35
2018-11-07T01:45:29.019Z,1005.36
2018-11-07T01:46:09.605Z,1005.36
2018-11-07T01:46:50.166Z,1005.33
2018-11-07T01:47:30.729Z,1005.31
2018-11-07T01:48:11.292Z,1005.3
2018-11-07T01:48:51.851Z,1005.29
2018-11-07T01:49:32.455Z,1005.26
2018-11-07T01:50:13.013Z,1005.29
2018-11-07T01:50:53.576Z,1005.27
2018-11-07T01:51:34.211Z,1005.23
2018-11-07T01:52:15.578Z,1005.27
2018-11-07T01:52:56.094Z,1005.21
2018-11-07T01:53:36.681Z,1005.24
2018-11-07T01:54:17.243Z,1005.24
2018-11-07T01:54:57.826Z,1005.26
2018-11-07T01:55:38.388Z,1005.24
2018-11-07T01:56:18.943Z,1005.27
2018-11-07T01:56:59.530Z,1005.24
2018-11-07T01:57:40.105Z,1005.25
2018-11-07T01:58:20.665Z,1005.22
2018-11-07T01:59:01.224Z,1005.21
2018-11-07T01:59:41.794Z,1005.25
2018-11-07T02:00:22.351Z,1005.25
2018-11-07T02:01:02.960Z,1005.19
2018-11-07T02:01:43.538Z,1005.2
2018-11-07T02:02:24.103Z,1005.19
2018-11-07T02:03:04.660Z,1005.16
2018-11-07T02:03:45.210Z,1005.14
2018-11-07T02:04:25.775Z,1005.14
2018-11-07T02:05:06.353Z,1005.11
2018-11-07T02:05:46.920Z,1005.1
2018-11-07T02:06:27.471Z,1005.13
2018-11-07T02:07:08.030Z,1005.09
2018-11-07T02:07:48.597Z,1005.08
2018-11-07T02:08:29.161Z,1005.11
2018-11-07T02:09:09.722Z,1005.14
2018-11-07T02:09:50.301Z,1005.15
2018-11-07T02:10:30.882Z,1005.17
2018-11-07T02:11:11.467Z,1005.16
2018-11-07T02:11:52.037Z,1005.18
2018-11-07T02:12:32.612Z,1005.17
2018-11-07T02:13:13.172Z,1005.15
2018-11-07T02:13:53.727Z,1005.15
2018-11-07T02:14:34.357Z,1005.17
2018-11-07T02:15:14.910Z,1005.15
2018-11-07T02:15:55.487Z,1005.16
2018-11-07T02:16:36.075Z,1005.13
2018-11-07T02:17:16.626Z,1005.17
2018-11-07T02:17:57.188Z,1005.16
2018-11-07T02:18:37.767Z,1005.16
2018-11-07T02:19:18.326Z,1005.17
2018-11-07T02:19:58.917Z,1005.15
2018-11-07T02:20:39.477Z,1005.16
2018-11-07T02:21:20.032Z,1005.17
2018-11-07T02:22:00.591Z,1005.13
2018-11-07T02:22:41.237Z,1005.11
2018-11-07T02:23:21.788Z,1005.06
2018-11-07T02:24:02.358Z,1005.06
2018-11-07T02:24:42.918Z,1005.04
2018-11-07T02:25:23.476Z,1005.07
2018-11-07T02:26:04.057Z,1005.06
2018-11-07T02:26:44.602Z,1005.05
2018-11-07T02:27:25.196Z,1005.04
2018-11-07T02:28:05.749Z,1005.07
2018-11-07T02:28:46.327Z,1005.03
2018-11-07T02:29:26.887Z,1005.06
2018-11-07T02:30:07.442Z,1005.06
2018-11-07T02:30:48.017Z,1005.08
2018-11-07T02:31:28.571Z,1005.07
2018-11-07T02:32:09.315Z,1005.09
2018-11-07T02:32:49.871Z,1005.09
2018-11-07T02:33:30.461Z,1005.09
2018-11-07T02:34:11.046Z,1005.05
2018-11-07T02:34:51.585Z,1005.04
2018-11-07T02:35:32.146Z,1005.07
2018-11-07T02:36:12.723Z,1005.06
2018-11-07T02:36:53.300Z,1005.05
2018-11-07T02:37:33.912Z,1005.01
2018-11-07T02:38:14.466Z,1005.09
2018-11-07T02:38:55.078Z,1005.06
2018-11-07T02:39:35.637Z,1005.04
2018-11-07T02:40:16.201Z,1005.07
2018-11-07T02:40:56.782Z,1005.05
2018-11-07T02:41:37.369Z,1005.03
2018-11-07T02:42:17.954Z,1005.07
2018-11-07T02:42:58.535Z,1005.07
2018-11-07T02:43:39.105Z,1005.09
2018-11-07T02:44:19.664Z,1005.08
2018-11-07T02:45:00.210Z,1005.09
2018-11-07T02:45:40.783Z,1005.09
2018-11-07T02:46:21.338Z,1005.03
2018-11-07T02:47:01.911Z,1005.05
2018-11-07T02:47:42.493Z,1005.01
2018-11-07T02:48:23.035Z,1005.05
2018-11-07T02:49:03.605Z,1005.07
2018-11-07T02:49:44.156Z,1005.04
2018-11-07T02:50:24.726Z,1005.08
2018-11-07T02:51:05.350Z,1005.08
2018-11-07T02:51:45.913Z,1005.15
2018-11-07T02:52:26.481Z,1005.09
2018-11-07T02:53:07.043Z,1005.09
2018-11-07T02:53:47.600Z,1005.06
2018-11-07T02:54:28.171Z,1005.07
2018-11-07T02:55:08.738Z,1005.01
2018-11-07T02:55:49.296Z,1005.03
2018-11-07T02:56:29.854Z,1005.01
2018-11-07T02:57:10.418Z,1005.06
2018-11-07T02:57:50.982Z,1005.04
2018-11-07T02:58:31.562Z,1005.1
2018-11-07T02:59:12.135Z,1005.06
2018-11-07T02:59:52.696Z,1005.07
2018-11-07T03:00:33.256Z,1005.1
2018-11-07T03:01:13.856Z,1005.09
2018-11-07T03:01:54.383Z,1005.09
2018-11-07T03:02:34.938Z,1005.07
2018-11-07T03:03:15.535Z,1005.11
2018-11-07T03:03:56.079Z,1005.03
2018-11-07T03:04:36.644Z,1005.02
2018-11-07T03:05:17.197Z,1005.04
2018-11-07T03:05:57.758Z,1004.98
2018-11-07T03:06:38.378Z,1004.97
2018-11-07T03:07:18.889Z,1004.97
2018-11-07T03:07:59.470Z,1004.93
2018-11-07T03:08:40.039Z,1004.95
2018-11-07T03:09:20.617Z,1004.96
2018-11-07T03:10:01.194Z,1004.98
2018-11-07T03:10:41.882Z,1004.99
2018-11-07T03:11:22.285Z,1004.94
2018-11-07T03:12:02.844Z,1004.97
2018-11-07T03:12:43.400Z,1004.94
2018-11-07T03:13:23.996Z,1004.91
2018-11-07T03:14:04.563Z,1004.92
2018-11-07T03:14:45.118Z,1004.89
2018-11-07T03:15:25.674Z,1004.94
2018-11-07T03:16:06.244Z,1004.9
2018-11-07T03:16:46.815Z,1004.96
2018-11-07T03:17:27.364Z,1004.92
2018-11-07T03:18:07.918Z,1004.94
2018-11-07T03:18:48.484Z,1004.98
2018-11-07T03:19:29.057Z,1004.97
2018-11-07T03:20:09.624Z,1004.97
2018-11-07T03:20:50.203Z,1004.99
2018-11-07T03:21:30.766Z,1005.01
2018-11-07T03:22:11.337Z,1005.03
2018-11-07T03:22:51.912Z,1005
2018-11-07T03:23:32.479Z,1005.03
2018-11-07T03:24:13.119Z,1005.01
2018-11-07T03:24:53.681Z,1005
2018-11-07T03:25:34.226Z,1005
2018-11-07T03:26:14.782Z,1004.98
2018-11-07T03:26:55.356Z,1005.03
2018-11-07T03:27:35.935Z,1004.96
2018-11-07T03:28:16.500Z,1004.9
2018-11-07T03:28:57.079Z,1004.87
2018-11-07T03:29:37.622Z,1004.93
2018-11-07T03:30:18.194Z,1004.96
2018-11-07T03:30:58.801Z,1004.99
2018-11-07T03:31:39.357Z,1005
2018-11-07T03:32:20.010Z,1004.99
2018-11-07T03:33:00.569Z,1005.03
2018-11-07T03:33:41.143Z,1004.94
2018-11-07T03:34:21.703Z,1004.97
2018-11-07T03:35:02.248Z,1004.99
2018-11-07T03:35:42.834Z,1004.95
2018-11-07T03:36:23.497Z,1004.94
2018-11-07T03:37:04.068Z,1004.99
2018-11-07T03:37:44.643Z,1005.01
2018-11-07T03:38:25.183Z,1005.01
2018-11-07T03:39:05.767Z,1004.99
2018-11-07T03:39:46.380Z,1005.01
2018-11-07T03:40:26.872Z,1005
2018-11-07T03:41:07.430Z,1005
2018-11-07T03:41:47.985Z,1004.94
2018-11-07T03:42:28.539Z,1004.97
2018-11-07T03:43:09.105Z,1004.99
2018-11-07T03:43:49.689Z,1004.95
2018-11-07T03:44:30.270Z,1004.98
2018-11-07T03:45:10.818Z,1005.02
2018-11-07T03:45:51.369Z,1004.98
2018-11-07T03:46:31.970Z,1004.98
2018-11-07T03:47:12.530Z,1005.03
2018-11-07T03:47:53.119Z,1005
2018-11-07T03:48:33.677Z,1004.99
2018-11-07T03:49:14.250Z,1004.99
2018-11-07T03:49:54.810Z,1004.96
2018-11-07T03:50:35.393Z,1004.97
2018-11-07T03:51:15.967Z,1004.94
2018-11-07T03:51:56.557Z,1004.97
2018-11-07T03:52:37.129Z,1004.96
2018-11-07T03:53:17.833Z,1004.97
2018-11-07T03:53:58.237Z,1004.98
2018-11-07T03:54:38.835Z,1004.97
2018-11-07T03:55:19.486Z,1004.98
2018-11-07T03:56:00.036Z,1004.92
2018-11-07T03:56:40.626Z,1004.97
2018-11-07T03:57:21.179Z,1004.98
2018-11-07T03:58:01.740Z,1004.96
2018-11-07T03:58:42.301Z,1004.94
2018-11-07T03:59:22.920Z,1004.97
2018-11-07T04:00:03.500Z,1004.98
2018-11-07T04:00:44.065Z,1004.95
2018-11-07T04:01:24.672Z,1004.96
2018-11-07T04:02:05.276Z,1004.96
2018-11-07T04:02:45.884Z,1004.95
2018-11-07T04:03:26.460Z,1004.98
2018-11-07T04:04:07.054Z,1004.98
2018-11-07T04:04:47.633Z,1004.97
2018-11-07T04:05:28.194Z,1005.03
2018-11-07T04:06:08.751Z,1005
2018-11-07T04:06:49.328Z,1005.04
2018-11-07T04:07:29.909Z,1005.05
2018-11-07T04:08:10.471Z,1005.09
2018-11-07T04:08:51.070Z,1005.07
2018-11-07T04:09:31.632Z,1005.08
2018-11-07T04:10:12.249Z,1005.06
2018-11-07T04:10:52.807Z,1005.08
2018-11-07T04:11:33.377Z,1005.09
2018-11-07T04:12:13.956Z,1005.07
2018-11-07T04:12:54.523Z,1005.04
2018-11-07T04:13:35.077Z,1005.08
2018-11-07T04:14:15.645Z,1005.04
2018-11-07T04:14:56.215Z,1005.07
2018-11-07T04:15:36.791Z,1005.04
2018-11-07T04:16:17.352Z,1005.04
2018-11-07T04:16:57.893Z,1005.04
2018-11-07T04:17:38.444Z,1005.05
2018-11-07T04:18:19.029Z,1005.05
2018-11-07T04:18:59.598Z,1005.05
2018-11-07T04:19:40.173Z,1005
2018-11-07T04:20:20.733Z,1005.02
2018-11-07T04:21:01.300Z,1005
2018-11-07T04:21:41.890Z,1005
2018-11-07T04:22:22.443Z,1004.99
2018-11-07T04:23:03.008Z,1005
2018-11-07T04:23:43.558Z,1005.01
2018-11-07T04:24:24.156Z,1005
2018-11-07T04:25:04.747Z,1004.97
2018-11-07T04:25:45.294Z,1004.97
2018-11-07T04:26:25.865Z,1005.04
2018-11-07T04:27:06.433Z,1004.96
2018-11-07T04:27:47.004Z,1004.98
2018-11-07T04:28:27.578Z,1005
2018-11-07T04:29:08.185Z,1005.04
2018-11-07T04:29:48.764Z,1005.04
2018-11-07T04:30:29.333Z,1005.06
2018-11-07T04:31:09.893Z,1005.04
2018-11-07T04:31:50.464Z,1005.06
2018-11-07T04:32:31.005Z,1005.07
2018-11-07T04:33:11.600Z,1005.08
2018-11-07T04:33:52.165Z,1005.04
2018-11-07T04:34:32.737Z,1005.02
2018-11-07T04:35:13.284Z,1005.03
2018-11-07T04:35:53.842Z,1005.04
2018-11-07T04:36:34.399Z,1005
2018-11-07T04:37:14.962Z,1005.04
2018-11-07T04:37:55.515Z,1005.04
2018-11-07T04:38:36.082Z,1005.1
2018-11-07T04:39:16.702Z,1005.02
2018-11-07T04:39:57.201Z,1005.04
2018-11-07T04:40:37.776Z,1005.05
2018-11-07T04:41:18.367Z,1005.04
2018-11-07T04:41:58.891Z,1005.02
2018-11-07T04:42:39.457Z,1005.02
2018-11-07T04:43:20.020Z,1005.02
2018-11-07T04:44:00.588Z,1005.02
2018-11-07T04:44:41.164Z,1005.03
2018-11-07T04:45:21.707Z,1005.03
2018-11-07T04:46:02.289Z,1005.01
2018-11-07T04:46:42.856Z,1005.01
2018-11-07T04:47:23.413Z,1005
2018-11-07T04:48:03.970Z,1005.01
2018-11-07T04:48:44.526Z,1005.03
2018-11-07T04:49:25.128Z,1005.02
2018-11-07T04:50:05.697Z,1004.96
2018-11-07T04:50:46.250Z,1004.98
2018-11-07T04:51:26.816Z,1004.98
2018-11-07T04:52:07.378Z,1005.01
2018-11-07T04:52:47.924Z,1005.02
2018-11-07T04:53:28.486Z,1005.04
2018-11-07T04:54:09.031Z,1005.05
2018-11-07T04:54:49.595Z,1005.04
2018-11-07T04:55:30.161Z,1005.1
2018-11-07T04:56:10.725Z,1005.1
2018-11-07T04:56:51.281Z,1005.02
2018-11-07T04:57:31.849Z,1005.07
2018-11-07T04:58:12.416Z,1005.09
2018-11-07T04:58:52.957Z,1005.1
2018-11-07T04:59:33.513Z,1005.15
2018-11-07T05:00:14.100Z,1005.08
2018-11-07T05:00:54.653Z,1005.15
2018-11-07T05:01:35.216Z,1005.13
2018-11-07T05:02:15.779Z,1005.07
2018-11-07T05:02:56.337Z,1005.09
2018-11-07T05:03:36.929Z,1005.09
2018-11-07T05:04:17.480Z,1005.07
2018-11-07T05:04:58.050Z,1005.1
2018-11-07T05:05:38.614Z,1005.06
2018-11-07T05:06:19.206Z,1005.09
2018-11-07T05:06:59.777Z,1005.08
2018-11-07T05:07:40.341Z,1005.11
2018-11-07T05:08:20.940Z,1005.07
2018-11-07T05:09:01.457Z,1005.08
2018-11-07T05:09:42.002Z,1005.07
2018-11-07T05:10:22.577Z,1005.07
2018-11-07T05:11:03.146Z,1005.08
2018-11-07T05:11:43.708Z,1005.05
2018-11-07T05:12:24.278Z,1005.03
2018-11-07T05:13:04.840Z,1005
2018-11-07T05:13:45.402Z,1005.02
2018-11-07T05:14:26.029Z,1005.04
2018-11-07T05:15:06.676Z,1005.06
2018-11-07T05:15:47.239Z,1005.03
2018-11-07T05:16:27.945Z,1005.04
2018-11-07T05:17:08.537Z,1005.07
2018-11-07T05:17:49.177Z,1005.06
2018-11-07T05:18:29.737Z,1005.08
2018-11-07T05:19:10.296Z,1005.07
2018-11-07T05:19:51.012Z,1005.11
2018-11-07T05:20:31.450Z,1005.13
2018-11-07T05:21:12.011Z,1005.12
2018-11-07T05:21:52.575Z,1005.11
2018-11-07T05:22:33.152Z,1005.13
2018-11-07T05:23:13.727Z,1005.15
2018-11-07T05:23:54.333Z,1005.13
2018-11-07T05:24:34.868Z,1005.11
2018-11-07T05:25:15.433Z,1005.12
2018-11-07T05:25:56.003Z,1005.15
2018-11-07T05:26:36.564Z,1005.16
2018-11-07T05:27:17.129Z,1005.19
2018-11-07T05:27:57.712Z,1005.18
2018-11-07T05:28:38.257Z,1005.17
2018-11-07T05:29:18.817Z,1005.2
2018-11-07T05:29:59.404Z,1005.23
2018-11-07T05:30:39.981Z,1005.21
2018-11-07T05:31:20.579Z,1005.2
2018-11-07T05:32:01.248Z,1005.25
2018-11-07T05:32:41.710Z,1005.27
2018-11-07T05:33:22.274Z,1005.27
2018-11-07T05:34:02.836Z,1005.25
2018-11-07T05:34:43.419Z,1005.29
2018-11-07T05:35:23.978Z,1005.29
2018-11-07T05:36:04.531Z,1005.26
2018-11-07T05:36:45.100Z,1005.27
2018-11-07T05:37:25.653Z,1005.26
2018-11-07T05:38:06.219Z,1005.28
2018-11-07T05:38:46.776Z,1005.33
2018-11-07T05:39:27.357Z,1005.32
2018-11-07T05:40:07.931Z,1005.29
2018-11-07T05:40:48.495Z,1005.28
2018-11-07T05:41:29.049Z,1005.32
2018-11-07T05:42:09.615Z,1005.3
2018-11-07T05:42:50.209Z,1005.3
2018-11-07T05:43:31.059Z,1005.33
2018-11-07T05:44:11.719Z,1005.33
2018-11-07T05:44:52.346Z,1005.36
2018-11-07T05:45:32.907Z,1005.35
2018-11-07T05:46:13.460Z,1005.37
2018-11-07T05:46:54.021Z,1005.39
2018-11-07T05:47:34.600Z,1005.37
2018-11-07T05:48:15.166Z,1005.42
2018-11-07T05:48:55.788Z,1005.37
2018-11-07T05:49:36.279Z,1005.34
2018-11-07T05:50:16.851Z,1005.39
2018-11-07T05:50:57.443Z,1005.39
2018-11-07T05:51:37.984Z,1005.41
2018-11-07T05:52:18.532Z,1005.37
2018-11-07T05:52:59.083Z,1005.4
2018-11-07T05:53:39.667Z,1005.37
2018-11-07T05:54:20.264Z,1005.36
2018-11-07T05:55:00.835Z,1005.44
2018-11-07T05:55:41.380Z,1005.43
2018-11-07T05:56:21.931Z,1005.43
2018-11-07T05:57:02.492Z,1005.43
2018-11-07T05:57:43.034Z,1005.43
2018-11-07T05:58:23.620Z,1005.42
2018-11-07T05:59:04.167Z,1005.37
2018-11-07T05:59:44.780Z,1005.39
2018-11-07T06:00:26.245Z,1005.42
2018-11-07T06:01:05.917Z,1005.45
2018-11-07T06:01:46.482Z,1005.44
2018-11-07T06:02:27.053Z,1005.42
2018-11-07T06:03:07.607Z,1005.44
2018-11-07T06:03:48.168Z,1005.44
2018-11-07T06:04:28.735Z,1005.5
2018-11-07T06:05:09.297Z,1005.45
2018-11-07T06:05:49.894Z,1005.49
2018-11-07T06:06:30.452Z,1005.45
2018-11-07T06:07:11.020Z,1005.5
2018-11-07T06:07:51.564Z,1005.47
2018-11-07T06:08:32.120Z,1005.5
2018-11-07T06:09:12.695Z,1005.53
2018-11-07T06:09:53.246Z,1005.56
2018-11-07T06:10:33.792Z,1005.55
2018-11-07T06:11:14.348Z,1005.51
2018-11-07T06:11:54.942Z,1005.54
2018-11-07T06:12:35.543Z,1005.52
2018-11-07T06:13:16.105Z,1005.5
2018-11-07T06:13:56.676Z,1005.55
2018-11-07T06:14:37.237Z,1005.54
2018-11-07T06:15:17.795Z,1005.54
2018-11-07T06:15:58.437Z,1005.53
2018-11-07T06:16:38.944Z,1005.58
2018-11-07T06:17:19.519Z,1005.59
2018-11-07T06:18:00.101Z,1005.59
2018-11-07T06:18:40.657Z,1005.63
2018-11-07T06:19:21.242Z,1005.64
2018-11-07T06:20:01.795Z,1005.64
2018-11-07T06:20:42.375Z,1005.66
2018-11-07T06:21:23.043Z,1005.61
2018-11-07T06:22:03.600Z,1005.65
2018-11-07T06:22:44.173Z,1005.65
2018-11-07T06:23:24.736Z,1005.64
2018-11-07T06:24:05.339Z,1005.61
2018-11-07T06:24:46.014Z,1005.65
2018-11-07T06:25:26.732Z,1005.61
2018-11-07T06:26:07.320Z,1005.66
2018-11-07T06:26:47.895Z,1005.61
2018-11-07T06:27:28.484Z,1005.62
2018-11-07T06:28:09.024Z,1005.65
2018-11-07T06:28:49.633Z,1005.63
2018-11-07T06:29:30.245Z,1005.63
2018-11-07T06:30:10.817Z,1005.62
2018-11-07T06:30:51.395Z,1005.68
2018-11-07T06:31:31.949Z,1005.66
2018-11-07T06:32:12.532Z,1005.68
2018-11-07T06:32:53.100Z,1005.67
2018-11-07T06:33:33.687Z,1005.69
2018-11-07T06:34:14.236Z,1005.73
2018-11-07T06:34:54.879Z,1005.69
2018-11-07T06:35:35.429Z,1005.69
2018-11-07T06:36:16.128Z,1005.69
2018-11-07T06:36:56.758Z,1005.71
2018-11-07T06:37:37.319Z,1005.73
2018-11-07T06:38:18.000Z,1005.72
2018-11-07T06:38:58.580Z,1005.73
2018-11-07T06:39:39.172Z,1005.75
2018-11-07T06:40:19.818Z,1005.7
2018-11-07T06:41:00.553Z,1005.73
2018-11-07T06:41:41.275Z,1005.72
2018-11-07T06:42:21.839Z,1005.73
2018-11-07T06:43:02.897Z,1005.76
2018-11-07T06:43:43.434Z,1005.77
2018-11-07T06:44:24.248Z,1005.76
2018-11-07T06:45:04.851Z,1005.78
2018-11-07T06:45:45.594Z,1005.77
2018-11-07T06:46:26.142Z,1005.77
2018-11-07T06:47:06.757Z,1005.76
2018-11-07T06:47:47.375Z,1005.8
2018-11-07T06:48:27.988Z,1005.79
2018-11-07T06:49:08.546Z,1005.79
2018-11-07T06:49:49.111Z,1005.82
2018-11-07T06:50:29.694Z,1005.82
2018-11-07T06:51:10.554Z,1005.8
2018-11-07T06:51:51.143Z,1005.82
2018-11-07T06:52:31.688Z,1005.82
2018-11-07T06:53:12.449Z,1005.85
2018-11-07T06:53:53.009Z,1005.84
2018-11-07T06:54:33.565Z,1005.85
2018-11-07T06:55:14.191Z,1005.86
2018-11-07T06:55:54.676Z,1005.86
2018-11-07T06:56:35.292Z,1005.87
2018-11-07T06:57:15.848Z,1005.87
2018-11-07T06:57:56.464Z,1005.88
2018-11-07T06:58:37.099Z,1005.9
2018-11-07T06:59:17.768Z,1005.94
2018-11-07T06:59:58.337Z,1005.95
2018-11-07T07:00:38.899Z,1005.92
2018-11-07T07:01:19.470Z,1005.86
2018-11-07T07:02:00.181Z,1005.89
2018-11-07T07:02:40.762Z,1005.87
2018-11-07T07:03:21.329Z,1005.91
2018-11-07T07:04:01.875Z,1005.88
2018-11-07T07:04:42.426Z,1005.9
2018-11-07T07:05:22.983Z,1005.9
2018-11-07T07:06:03.539Z,1005.88
2018-11-07T07:06:44.122Z,1005.89
2018-11-07T07:07:24.718Z,1005.9
2018-11-07T07:08:05.824Z,1005.93
2018-11-07T07:08:46.437Z,1005.89
2018-11-07T07:09:26.981Z,1005.91
2018-11-07T07:10:08.109Z,1005.9
2018-11-07T07:10:49.047Z,1005.89
2018-11-07T07:11:29.704Z,1005.9
2018-11-07T07:12:10.304Z,1005.93
2018-11-07T07:12:51.083Z,1005.92
2018-11-07T07:13:31.729Z,1005.9
2018-11-07T07:14:12.293Z,1005.95
2018-11-07T07:14:52.886Z,1005.94
2018-11-07T07:15:34.290Z,1005.92
2018-11-07T07:16:15.158Z,1005.94
2018-11-07T07:16:55.861Z,1005.96
2018-11-07T07:17:36.675Z,1005.95
2018-11-07T07:18:19.208Z,1005.97
2018-11-07T07:18:59.853Z,1006
2018-11-07T07:19:40.421Z,1005.96
2018-11-07T07:20:20.965Z,1006.09
2018-11-07T07:21:01.575Z,1006.03
2018-11-07T07:21:42.142Z,1006.04
2018-11-07T07:22:22.674Z,1006.03
2018-11-07T07:23:03.225Z,1006.07
2018-11-07T07:23:43.800Z,1006.05
2018-11-07T07:24:24.360Z,1006.04
2018-11-07T07:25:04.909Z,1006.08
2018-11-07T07:25:45.597Z,1006.04
2018-11-07T07:26:26.057Z,1006.06
2018-11-07T07:27:06.623Z,1006.08
2018-11-07T07:27:47.204Z,1006.1
2018-11-07T07:28:28.974Z,1006.05
2018-11-07T07:29:09.031Z,1006.09
2018-11-07T07:29:49.638Z,1006.1
2018-11-07T07:30:30.200Z,1006.05
2018-11-07T07:31:10.819Z,1006.1
2018-11-07T07:31:51.501Z,1006.12
2018-11-07T07:32:32.221Z,1006.11
2018-11-07T07:33:12.964Z,1006.12
2018-11-07T07:33:53.472Z,1006.12
2018-11-07T07:34:34.108Z,1006.11
2018-11-07T07:35:14.670Z,1006.13
2018-11-07T07:35:55.224Z,1006.09
2018-11-07T07:36:36.332Z,1006.09
2018-11-07T07:37:17.558Z,1006.11
2018-11-07T07:37:58.226Z,1006.11
2018-11-07T07:38:39.053Z,1006.09
2018-11-07T07:39:19.878Z,1006.12
2018-11-07T07:40:00.856Z,1006.15
2018-11-07T07:40:41.451Z,1006.18
2018-11-07T07:41:22.333Z,1006.16
2018-11-07T07:42:03.004Z,1006.17
2018-11-07T07:42:43.865Z,1006.15
2018-11-07T07:43:24.409Z,1006.17
2018-11-07T07:44:04.969Z,1006.19
2018-11-07T07:44:45.567Z,1006.21
2018-11-07T07:45:26.143Z,1006.2
2018-11-07T07:46:06.674Z,1006.2
2018-11-07T07:46:47.338Z,1006.16
2018-11-07T07:47:27.913Z,1006.2
2018-11-07T07:48:08.576Z,1006.21
2018-11-07T07:48:49.080Z,1006.18
2018-11-07T07:49:29.635Z,1006.23
2018-11-07T07:50:10.167Z,1006.22
2018-11-07T07:50:50.860Z,1006.19
2018-11-07T07:51:31.447Z,1006.19
2018-11-07T07:52:11.985Z,1006.2
2018-11-07T07:52:52.708Z,1006.17
2018-11-07T07:53:33.459Z,1006.12
2018-11-07T07:54:14.025Z,1006.15
2018-11-07T07:54:54.589Z,1006.13
2018-11-07T07:55:35.148Z,1006.16
2018-11-07T07:56:15.839Z,1006.18
2018-11-07T07:56:56.540Z,1006.12
2018-11-07T07:57:37.290Z,1006.12
2018-11-07T07:58:17.843Z,1006.16
2018-11-07T07:58:58.386Z,1006.17
2018-11-07T07:59:38.974Z,1006.19
2018-11-07T08:00:19.537Z,1006.19
2018-11-07T08:01:00.203Z,1006.2
2018-11-07T08:01:40.786Z,1006.2
2018-11-07T08:02:21.337Z,1006.23
2018-11-07T08:03:01.880Z,1006.24
2018-11-07T08:03:42.441Z,1006.24
2018-11-07T08:04:22.985Z,1006.23
2018-11-07T08:05:03.587Z,1006.14
2018-11-07T08:05:44.144Z,1006.18
2018-11-07T08:06:24.711Z,1006.14
2018-11-07T08:07:05.320Z,1006.19
2018-11-07T08:07:45.838Z,1006.24
2018-11-07T08:08:26.426Z,1006.21
2018-11-07T08:09:06.976Z,1006.23
2018-11-07T08:09:47.562Z,1006.21
2018-11-07T08:10:28.134Z,1006.23
2018-11-07T08:11:08.686Z,1006.22
2018-11-07T08:11:49.250Z,1006.25
2018-11-07T08:12:29.806Z,1006.32